Time;durP1;ratioP1;P1;durP2;ratioP2;P2;SDS_P1;SDS_P2;PMS_P1;PMS_P2;Temp;Humidity;BMP_temperature;BMP_pressure;BME280_temperature;BME280_humidity;BME280_pressure;Samples;Min_cycle;Max_cycle;Signal;HPM_P1;HPM_P2
2021/03/01 00:01:06;;;;;;;30.93;20.60;;;-0.30;94.20;;;;;;6016085;23;20389;-96
2021/03/01 00:03:44;;;;;;;30.48;19.92;;;-0.20;94.00;;;;;;6015804;23;20437;-96
2021/03/01 00:06:21;;;;;;;29.42;19.83;;;-0.10;93.70;;;;;;6019017;23;20458;-96
2021/03/01 00:08:51;;;;;;;32.37;20.00;;;-0.10;93.40;;;;;;6061743;23;20450;-96
2021/03/01 00:11:23;;;;;;;30.50;20.85;;;0.00;93.40;;;;;;6097358;23;20399;-95
2021/03/01 00:14:01;;;;;;;30.65;20.83;;;-0.10;93.40;;;;;;6095952;23;20398;-96
2021/03/01 00:16:35;;;;;;;29.98;20.73;;;-0.10;93.50;;;;;;6095760;23;20390;-96
2021/03/01 00:19:07;;;;;;;32.80;21.05;;;-0.30;93.80;;;;;;6096791;23;20895;-95
2021/03/01 00:21:34;;;;;;;34.40;21.23;;;-0.20;93.90;;;;;;6096169;23;20867;-95
2021/03/01 00:24:04;;;;;;;29.10;20.67;;;-0.20;93.80;;;;;;6096140;23;20540;-96
2021/03/01 00:26:34;;;;;;;30.42;20.25;;;-0.10;93.60;;;;;;6096112;23;20737;-95
2021/03/01 00:29:03;;;;;;;30.50;20.70;;;-0.10;93.50;;;;;;6107673;23;20392;-95
2021/03/01 00:31:33;;;;;;;30.90;20.60;;;-0.10;93.60;;;;;;6111663;23;20392;-95
2021/03/01 00:34:03;;;;;;;27.70;19.50;;;-0.20;93.90;;;;;;6219712;23;20881;-96
2021/03/01 00:36:30;;;;;;;30.70;19.77;;;-0.20;93.50;;;;;;6219786;23;20382;-96
2021/03/01 00:39:00;;;;;;;32.35;20.02;;;-0.20;93.70;;;;;;6220538;23;20389;-94
2021/03/01 00:41:31;;;;;;;31.33;19.48;;;-0.20;93.70;;;;;;6221651;23;20695;-94
2021/03/01 00:43:58;;;;;;;30.03;19.27;;;-0.40;93.90;;;;;;6220177;23;20717;-95
2021/03/01 00:46:25;;;;;;;29.85;20.08;;;-0.40;94.30;;;;;;6220547;23;20386;-96
2021/03/01 00:48:52;;;;;;;30.20;19.70;;;-0.40;94.40;;;;;;6219728;23;20392;-95
2021/03/01 00:51:22;;;;;;;31.20;21.08;;;-0.40;94.40;;;;;;6220598;23;20382;-95
2021/03/01 00:53:50;;;;;;;34.72;22.63;;;-0.50;94.60;;;;;;6220756;23;20495;-94
2021/03/01 00:56:27;;;;;;;33.30;21.85;;;-0.50;94.80;;;;;;6221002;23;20385;-95
2021/03/01 00:58:57;;;;;;;36.33;21.92;;;-0.60;95.00;;;;;;6219691;23;20700;-94
2021/03/01 01:01:25;;;;;;;34.30;21.55;;;-0.70;95.10;;;;;;6246616;23;20417;-94
2021/03/01 01:04:00;;;;;;;32.33;21.83;;;-0.80;95.30;;;;;;6246458;23;20397;-94
2021/03/01 01:06:38;;;;;;;33.72;21.73;;;-0.70;95.40;;;;;;6245382;23;20461;-96
2021/03/01 01:09:20;;;;;;;33.75;22.02;;;-0.70;95.40;;;;;;6244515;23;20398;-95
2021/03/01 01:11:55;;;;;;;32.85;21.92;;;-0.70;95.30;;;;;;6221217;23;20382;-96
2021/03/01 01:14:38;;;;;;;34.03;22.70;;;-0.70;95.10;;;;;;6220674;23;20461;-95
2021/03/01 01:17:14;;;;;;;34.63;23.20;;;-0.70;95.20;;;;;;6220368;23;20434;-94
2021/03/01 01:19:57;;;;;;;38.95;24.30;;;-0.80;95.30;;;;;;6223950;23;20386;-94
2021/03/01 01:22:28;;;;;;;33.33;22.58;;;-0.70;95.30;;;;;;6220377;23;20390;-94
2021/03/01 01:24:58;;;;;;;35.78;22.85;;;-0.60;95.00;;;;;;6245605;23;20405;-95
2021/03/01 01:27:30;;;;;;;33.17;22.17;;;-0.50;94.80;;;;;;6244712;23;20393;-95
2021/03/01 01:29:59;;;;;;;35.75;22.63;;;-0.40;94.70;;;;;;6242901;23;20382;-94
2021/03/01 01:32:31;;;;;;;34.72;22.52;;;-0.50;94.50;;;;;;6244528;23;20741;-95
2021/03/01 01:35:14;;;;;;;36.42;23.15;;;-0.50;94.50;;;;;;6245453;23;20877;-95
2021/03/01 01:37:51;;;;;;;37.22;23.23;;;-0.50;94.50;;;;;;6245239;23;20703;-94
2021/03/01 01:40:27;;;;;;;34.70;22.63;;;-0.60;94.60;;;;;;6245757;23;20386;-95
2021/03/01 01:42:56;;;;;;;35.78;23.23;;;-0.50;94.60;;;;;;6245033;23;20386;-94
2021/03/01 01:45:26;;;;;;;37.25;23.65;;;-0.60;94.70;;;;;;6245254;23;20390;-95
2021/03/01 01:47:56;;;;;;;36.85;24.08;;;-0.60;94.90;;;;;;6252579;23;20388;-96
2021/03/01 01:50:39;;;;;;;37.65;23.85;;;-0.70;95.00;;;;;;6246307;23;20390;-95
2021/03/01 01:53:09;;;;;;;34.38;24.13;;;-0.60;94.90;;;;;;6246835;23;20673;-95
2021/03/01 01:55:42;;;;;;;39.22;24.25;;;-0.60;94.80;;;;;;6248002;23;20392;-94
2021/03/01 01:58:12;;;;;;;35.17;24.42;;;-0.60;94.60;;;;;;6246926;22;20385;-95
2021/03/01 02:00:46;;;;;;;38.10;23.58;;;-0.60;94.30;;;;;;6247179;23;20380;-96
2021/03/01 02:03:41;;;;;;;37.13;24.52;;;-0.60;94.30;;;;;;6250679;23;20413;-96
2021/03/01 02:06:34;;;;;;;36.17;24.60;;;-0.50;94.30;;;;;;6263492;23;20398;-95
2021/03/01 02:09:34;;;;;;;35.25;24.38;;;-0.60;94.20;;;;;;6249332;23;20396;-94
2021/03/01 02:12:04;;;;;;;38.20;24.70;;;-0.60;94.50;;;;;;6245639;23;20390;-94
2021/03/01 02:14:59;;;;;;;38.87;24.90;;;-0.60;94.50;;;;;;6246838;22;20414;-94
2021/03/01 02:17:25;;;;;;;36.50;24.40;;;-0.60;94.70;;;;;;6246469;23;20390;-94
2021/03/01 02:19:52;;;;;;;36.45;24.70;;;-0.60;94.80;;;;;;6247335;23;20392;-94
2021/03/01 02:22:19;;;;;;;34.83;23.90;;;-0.70;94.90;;;;;;6246878;23;20386;-94
2021/03/01 02:24:51;;;;;;;38.65;25.45;;;-0.70;95.00;;;;;;6247962;23;20401;-95
2021/03/01 02:27:28;;;;;;;36.97;23.80;;;-0.70;94.90;;;;;;6247013;23;20412;-95
2021/03/01 02:30:16;;;;;;;36.15;24.98;;;-0.70;94.70;;;;;;6245897;23;20390;-96
2021/03/01 02:32:49;;;;;;;36.90;24.23;;;-0.70;94.60;;;;;;6246820;23;20388;-95
2021/03/01 02:35:20;;;;;;;34.92;23.42;;;-0.60;94.30;;;;;;6272606;22;20867;-94
2021/03/01 02:37:57;;;;;;;36.10;23.92;;;-0.50;94.00;;;;;;6247517;23;20668;-95
2021/03/01 02:40:37;;;;;;;35.95;23.63;;;-0.40;93.70;;;;;;6247884;23;20389;-95
2021/03/01 02:43:05;;;;;;;35.80;23.52;;;-0.50;93.60;;;;;;6246322;23;20389;-95
2021/03/01 02:45:32;;;;;;;33.55;23.30;;;-0.40;93.50;;;;;;6246944;23;20473;-94
2021/03/01 02:48:01;;;;;;;35.53;23.00;;;-0.40;93.30;;;;;;6246472;23;20418;-95
2021/03/01 02:50:29;;;;;;;36.45;23.10;;;-0.30;93.20;;;;;;6246639;23;20851;-96
2021/03/01 02:52:56;;;;;;;37.20;24.38;;;-0.30;93.10;;;;;;6247124;23;20393;-96
2021/03/01 02:55:25;;;;;;;34.17;22.60;;;-0.30;93.20;;;;;;6246078;23;20410;-95
2021/03/01 02:58:09;;;;;;;38.38;23.77;;;-0.30;93.40;;;;;;6246230;22;20451;-96
2021/03/01 03:00:37;;;;;;;37.25;24.73;;;-0.40;93.70;;;;;;6246929;23;20381;-95
2021/03/01 03:03:06;;;;;;;39.33;24.25;;;-0.40;93.60;;;;;;6245979;23;20873;-96
2021/03/01 03:05:34;;;;;;;35.95;23.92;;;-0.40;93.70;;;;;;6246219;23;20417;-95
2021/03/01 03:08:02;;;;;;;40.40;24.75;;;-0.40;93.70;;;;;;6245943;23;20773;-94
2021/03/01 03:10:30;;;;;;;38.63;23.90;;;-0.40;93.80;;;;;;6246607;23;20394;-94
2021/03/01 03:12:58;;;;;;;38.67;25.75;;;-0.50;94.00;;;;;;6245900;23;20392;-94
2021/03/01 03:15:27;;;;;;;38.90;25.17;;;-0.50;94.20;;;;;;6246141;23;20396;-94
2021/03/01 03:17:55;;;;;;;38.88;26.25;;;-0.50;94.30;;;;;;6246185;23;20481;-94
2021/03/01 03:20:21;;;;;;;40.75;25.85;;;-0.50;94.20;;;;;;6247070;23;20386;-94
2021/03/01 03:22:48;;;;;;;40.80;26.80;;;-0.60;94.30;;;;;;6246841;23;20465;-94
2021/03/01 03:25:15;;;;;;;41.15;26.30;;;-0.70;94.60;;;;;;6245635;23;20408;-94
2021/03/01 03:27:41;;;;;;;40.17;26.40;;;-0.70;94.50;;;;;;6245618;23;20760;-93
2021/03/01 03:30:14;;;;;;;42.90;26.70;;;-0.70;94.30;;;;;;6246906;23;20842;-95
2021/03/01 03:32:41;;;;;;;38.00;26.08;;;-0.80;94.70;;;;;;6245539;23;20394;-95
2021/03/01 03:35:10;;;;;;;40.85;25.77;;;-0.70;94.80;;;;;;6246566;23;20392;-95
2021/03/01 03:37:58;;;;;;;40.08;26.23;;;-0.80;94.70;;;;;;6245209;23;20386;-93
2021/03/01 03:40:27;;;;;;;41.75;25.90;;;-0.80;94.60;;;;;;6247267;23;20417;-95
2021/03/01 03:42:58;;;;;;;39.08;24.33;;;-0.70;94.50;;;;;;6245546;23;20397;-96
2021/03/01 03:45:26;;;;;;;40.63;24.98;;;-0.70;94.30;;;;;;6247042;23;20708;-95
2021/03/01 03:47:57;;;;;;;40.43;24.70;;;-0.70;94.10;;;;;;6246114;23;20382;-95
2021/03/01 03:50:35;;;;;;;39.38;25.10;;;-0.70;94.10;;;;;;6247038;23;20390;-95
2021/03/01 03:54:04;;;;;;;40.80;25.88;;;-0.70;94.10;;;;;;6246190;23;20370;-94
2021/03/01 03:56:48;;;;;;;39.00;24.45;;;-0.70;93.90;;;;;;6246569;23;20867;-95
2021/03/01 03:59:50;;;;;;;38.00;24.50;;;-0.70;93.90;;;;;;6246210;22;20932;-94
2021/03/01 04:05:52;;;;;;;40.70;25.98;;;-0.80;94.00;;;;;;6125862;23;20436;-96
2021/03/01 04:08:54;;;;;;;;;;;;;;;;;;;;;
2021/03/01 04:11:57;;;;;;;36.92;23.67;;;-0.90;94.10;;;;;;6125917;23;20400;-94
2021/03/01 04:15:00;;;;;;;40.53;25.23;;;-0.80;94.00;;;;;;6095965;23;20891;-94
2021/03/01 04:17:39;;;;;;;41.13;25.67;;;-0.80;94.00;;;;;;6118706;23;20471;-95
2021/03/01 04:20:22;;;;;;;40.38;25.88;;;-0.80;94.10;;;;;;6119962;23;20394;-95
2021/03/01 04:22:59;;;;;;;40.45;24.90;;;-0.80;94.50;;;;;;6120539;23;20454;-96
2021/03/01 04:26:05;;;;;;;39.25;24.05;;;-0.90;94.50;;;;;;6134716;23;20399;-94
2021/03/01 04:28:35;;;;;;;42.83;25.30;;;-0.80;94.60;;;;;;6078729;23;20417;-94
2021/03/01 04:31:05;;;;;;;42.17;24.90;;;-0.70;94.70;;;;;;6120298;23;20394;-95
2021/03/01 04:33:34;;;;;;;43.80;24.17;;;-0.70;94.70;;;;;;6098529;23;20477;-95
2021/03/01 04:36:03;;;;;;;41.40;22.98;;;-0.60;94.50;;;;;;6119476;23;20399;-94
2021/03/01 04:38:31;;;;;;;41.80;24.47;;;-0.50;94.50;;;;;;6119295;23;20395;-95
2021/03/01 04:41:02;;;;;;;41.78;23.92;;;-0.50;94.20;;;;;;6151839;23;20504;-93
2021/03/01 04:43:30;;;;;;;43.15;25.73;;;-0.60;94.00;;;;;;6218328;23;20396;-94
2021/03/01 04:45:57;;;;;;;46.80;24.80;;;-0.60;94.20;;;;;;6236494;23;20393;-95
2021/03/01 04:48:27;;;;;;;46.15;25.17;;;-0.60;94.50;;;;;;6244700;23;20392;-95
2021/03/01 04:50:54;;;;;;;45.55;26.55;;;-0.60;94.50;;;;;;6245305;23;20389;-94
2021/03/01 04:53:23;;;;;;;45.70;26.45;;;-0.70;94.70;;;;;;6220327;23;20499;-95
2021/03/01 04:56:05;;;;;;;47.80;27.88;;;-0.60;94.90;;;;;;6245423;23;20389;-95
2021/03/01 04:58:39;;;;;;;49.75;29.08;;;-0.80;95.00;;;;;;6245276;22;20412;-96
2021/03/01 05:01:09;;;;;;;47.85;29.13;;;-0.90;95.10;;;;;;6246276;23;20443;-95
2021/03/01 05:03:40;;;;;;;52.05;28.88;;;-0.90;95.40;;;;;;6246082;23;20421;-95
2021/03/01 05:06:07;;;;;;;48.00;26.40;;;-0.90;95.60;;;;;;6245615;23;20398;-94
2021/03/01 05:08:35;;;;;;;48.67;27.83;;;-1.00;95.70;;;;;;6244696;23;20413;-95
2021/03/01 05:11:10;;;;;;;48.58;28.13;;;-1.10;95.90;;;;;;6245239;23;20456;-95
2021/03/01 05:13:47;;;;;;;51.72;29.83;;;-1.20;96.00;;;;;;6245329;23;20394;-95
2021/03/01 05:16:18;;;;;;;50.53;29.53;;;-1.20;96.00;;;;;;6246492;23;20390;-95
2021/03/01 05:18:46;;;;;;;60.15;29.05;;;-1.20;96.40;;;;;;6244811;23;20396;-95
2021/03/01 05:21:13;;;;;;;56.90;30.27;;;-1.30;96.60;;;;;;6245281;23;20858;-93
2021/03/01 05:23:42;;;;;;;58.20;30.75;;;-1.30;96.90;;;;;;6244811;23;20390;-94
2021/03/01 05:26:11;;;;;;;60.00;31.13;;;-1.30;97.00;;;;;;6245373;23;20393;-95
2021/03/01 05:28:40;;;;;;;59.65;30.70;;;-1.40;97.20;;;;;;6246554;23;20755;-93
2021/03/01 05:31:07;;;;;;;60.90;32.10;;;-1.30;97.30;;;;;;6246535;23;20474;-95
2021/03/01 05:33:36;;;;;;;63.63;32.03;;;-1.30;97.40;;;;;;6271670;22;20424;-94
2021/03/01 05:36:04;;;;;;;55.60;30.15;;;-1.20;97.50;;;;;;6247891;23;20389;-94
2021/03/01 05:38:30;;;;;;;60.33;30.83;;;-1.20;97.30;;;;;;6246863;23;20772;-95
2021/03/01 05:40:59;;;;;;;59.72;31.33;;;-1.10;97.30;;;;;;6246467;23;20382;-95
2021/03/01 05:43:31;;;;;;;59.55;30.73;;;-1.10;97.40;;;;;;6245798;23;20386;-95
2021/03/01 05:45:59;;;;;;;60.92;30.85;;;-1.20;97.30;;;;;;6246757;23;20964;-94
2021/03/01 05:48:27;;;;;;;62.15;32.08;;;-1.20;97.40;;;;;;6247330;23;20386;-94
2021/03/01 05:51:00;;;;;;;61.55;32.53;;;-1.20;97.40;;;;;;6246423;23;20385;-94
2021/03/01 05:53:32;;;;;;;64.10;34.35;;;-1.20;97.60;;;;;;6247344;23;20402;-95
2021/03/01 05:55:59;;;;;;;58.55;32.25;;;-1.20;97.90;;;;;;6247486;23;20393;-94
2021/03/01 05:58:27;;;;;;;64.30;32.72;;;-1.20;97.80;;;;;;6247512;22;20412;-94
2021/03/01 06:01:06;;;;;;;59.67;32.67;;;-1.00;97.90;;;;;;6246913;23;20473;-94
2021/03/01 06:03:37;;;;;;;59.22;31.80;;;-0.90;97.50;;;;;;6271763;22;20440;-95
2021/03/01 06:06:05;;;;;;;57.75;31.45;;;-1.00;97.30;;;;;;6246503;23;20393;-95
2021/03/01 06:08:32;;;;;;;54.72;29.92;;;-1.00;97.20;;;;;;6247901;23;20396;-96
2021/03/01 06:11:03;;;;;;;57.65;31.33;;;-1.10;97.10;;;;;;6247452;23;20386;-95
2021/03/01 06:13:30;;;;;;;53.03;30.30;;;-1.10;97.10;;;;;;6247085;23;20376;-95
2021/03/01 06:15:59;;;;;;;55.42;30.95;;;-1.00;96.90;;;;;;6247065;23;20389;-95
2021/03/01 06:18:27;;;;;;;53.72;29.80;;;-1.00;96.90;;;;;;6246695;23;20446;-94
2021/03/01 06:21:07;;;;;;;54.72;32.55;;;-1.10;96.90;;;;;;6246987;23;20382;-94
2021/03/01 06:23:36;;;;;;;50.60;28.70;;;-1.10;97.10;;;;;;6247251;23;20389;-94
2021/03/01 06:26:31;;;;;;;47.13;28.83;;;-1.00;97.10;;;;;;6246878;23;20420;-96
2021/03/01 06:29:04;;;;;;;48.42;29.20;;;-1.00;97.10;;;;;;6245999;23;20385;-95
2021/03/01 06:31:34;;;;;;;47.70;29.02;;;-1.00;97.10;;;;;;6245701;22;20397;-93
2021/03/01 06:34:22;;;;;;;46.80;27.90;;;-1.10;97.00;;;;;;6246934;23;20386;-96
2021/03/01 06:37:08;;;;;;;43.20;27.70;;;-1.00;96.80;;;;;;6245866;23;20389;-95
2021/03/01 06:39:38;;;;;;;46.67;28.13;;;-1.00;96.70;;;;;;6247337;23;20389;-94
2021/03/01 06:42:19;;;;;;;49.00;28.00;;;-1.00;96.90;;;;;;6246158;23;20382;-95
2021/03/01 06:45:02;;;;;;;47.47;28.17;;;-1.00;96.90;;;;;;6248845;22;20428;-93
2021/03/01 06:47:42;;;;;;;47.65;28.33;;;-1.00;97.00;;;;;;6260983;23;20889;-95
2021/03/01 06:50:32;;;;;;;46.83;27.42;;;-1.00;97.00;;;;;;6247798;22;20393;-94
2021/03/01 06:53:14;;;;;;;44.77;26.73;;;-0.90;97.00;;;;;;6246076;23;20389;-95
2021/03/01 06:56:05;;;;;;;49.72;29.55;;;-0.90;96.90;;;;;;6246586;23;20397;-96
2021/03/01 06:58:42;;;;;;;48.20;30.10;;;-0.80;97.00;;;;;;6245585;22;20382;-94
2021/03/01 07:01:22;;;;;;;49.27;30.43;;;-0.70;97.20;;;;;;6247751;23;20465;-95
2021/03/01 07:03:56;;;;;;;52.22;31.73;;;-0.60;97.30;;;;;;6246656;23;20421;-96
2021/03/01 07:06:59;;;;;;;51.85;32.28;;;-0.50;97.20;;;;;;6246905;23;20378;-95
2021/03/01 07:09:33;;;;;;;51.25;30.83;;;-0.20;97.10;;;;;;6246516;23;20392;-95
2021/03/01 07:12:03;;;;;;;48.00;28.65;;;0.40;95.70;;;;;;6245272;23;20421;-96
2021/03/01 07:14:30;;;;;;;45.77;27.53;;;0.70;94.50;;;;;;6246637;23;20386;-93
2021/03/01 07:17:03;;;;;;;46.92;28.65;;;1.10;93.60;;;;;;6248396;23;20712;-96
2021/03/01 07:20:00;;;;;;;46.45;28.08;;;1.20;93.10;;;;;;6249373;23;20398;-96
2021/03/01 07:23:13;;;;;;;45.03;27.47;;;1.50;92.80;;;;;;6248779;23;20390;-96
2021/03/01 07:26:17;;;;;;;46.10;27.23;;;1.70;92.20;;;;;;6192004;23;20372;-96
2021/03/01 07:28:58;;;;;;;46.07;26.73;;;1.90;91.90;;;;;;6166881;23;20385;-96
2021/03/01 07:31:33;;;;;;;42.17;26.17;;;1.90;91.80;;;;;;6161869;23;20397;-95
2021/03/01 07:34:31;;;;;;;41.53;25.33;;;2.00;91.80;;;;;;6186232;23;20425;-96
2021/03/01 07:37:15;;;;;;;41.00;26.40;;;2.00;91.80;;;;;;6130571;23;20396;-96
2021/03/01 07:40:31;;;;;;;;;;;;;;;;;;;;;
2021/03/01 07:48:06;;;;;;;40.58;25.30;;;2.70;90.60;;;;;;5960933;24;20392;-96
2021/03/01 07:54:46;;;;;;;38.67;24.43;;;2.90;90.30;;;;;;6011533;23;20409;-96
2021/03/01 08:05:03;;;;;;;36.72;23.58;;;3.00;90.30;;;;;;6295323;22;20391;-96
2021/03/01 08:07:43;;;;;;;36.83;24.23;;;3.20;90.40;;;;;;6218124;23;20386;-96
2021/03/01 08:22:14;;;;;;;39.08;24.48;;;3.00;91.90;;;;;;6304325;22;20416;-96
2021/03/01 08:24:57;;;;;;;37.03;23.75;;;3.10;91.80;;;;;;6310436;22;20433;-96
2021/03/01 08:27:30;;;;;;;33.97;21.77;;;3.30;92.00;;;;;;6309968;22;20406;-96
2021/03/01 08:38:00;;;;;;;33.35;20.33;;;3.60;90.70;;;;;;6071250;23;20913;-96
2021/03/01 08:40:27;;;;;;;30.98;19.70;;;3.70;90.70;;;;;;6074135;23;20400;-94
2021/03/01 08:56:28;;;;;;;24.10;15.93;;;4.50;83.90;;;;;;6230414;22;20356;-93
2021/03/01 09:46:59;;;;;;;18.40;11.82;;;8.50;67.80;;;;;;6262628;22;20386;-96
2021/03/01 09:49:56;;;;;;;17.35;12.20;;;8.40;67.70;;;;;;6259977;22;20395;-96
2021/03/01 09:52:46;;;;;;;18.77;12.80;;;8.60;66.20;;;;;;6276838;22;20392;-96
2021/03/01 09:55:13;;;;;;;20.83;13.70;;;8.50;65.10;;;;;;6255841;22;20380;-96
2021/03/01 09:57:40;;;;;;;19.52;13.52;;;8.10;67.80;;;;;;6253967;22;20384;-96
2021/03/01 10:00:28;;;;;;;19.77;13.05;;;8.10;70.30;;;;;;6256841;22;20450;-96
2021/03/01 10:03:17;;;;;;;19.10;11.30;;;8.20;68.40;;;;;;6262217;22;20467;-96
2021/03/01 10:05:50;;;;;;;19.90;12.60;;;8.40;66.70;;;;;;6259033;22;20779;-96
2021/03/01 10:08:24;;;;;;;17.38;12.00;;;8.30;69.70;;;;;;6261702;22;20399;-96
2021/03/01 10:10:52;;;;;;;17.65;12.50;;;8.50;69.10;;;;;;6256167;22;20384;-96
2021/03/01 10:13:28;;;;;;;18.50;12.52;;;8.80;68.10;;;;;;6281888;22;20410;-96
2021/03/01 10:15:55;;;;;;;18.98;12.60;;;9.00;67.50;;;;;;6253445;22;20476;-95
2021/03/01 10:18:27;;;;;;;17.88;11.88;;;9.30;67.40;;;;;;6254705;22;20685;-96
2021/03/01 10:20:59;;;;;;;17.90;10.95;;;9.50;64.50;;;;;;6281987;22;20903;-95
2021/03/01 10:23:41;;;;;;;16.63;11.68;;;9.50;62.10;;;;;;6254338;22;20469;-94
2021/03/01 10:26:19;;;;;;;17.03;11.67;;;9.40;63.10;;;;;;6255532;22;20384;-96
2021/03/01 10:28:58;;;;;;;17.00;10.77;;;9.20;64.50;;;;;;6273085;22;20400;-93
2021/03/01 10:31:33;;;;;;;16.48;10.70;;;9.20;62.20;;;;;;6277232;22;20392;-96
2021/03/01 10:34:06;;;;;;;15.57;9.88;;;9.10;64.10;;;;;;6277530;22;20384;-93
2021/03/01 10:36:45;;;;;;;13.27;9.30;;;9.10;63.80;;;;;;6275916;22;20373;-95
2021/03/01 11:02:11;;;;;;;13.15;8.77;;;10.20;58.20;;;;;;6248518;22;20400;-96
2021/03/01 11:04:44;;;;;;;11.75;8.43;;;10.40;60.20;;;;;;6276489;22;20400;-95
2021/03/01 11:07:11;;;;;;;13.85;8.50;;;10.70;58.40;;;;;;6303239;22;20414;-96
2021/03/01 11:09:38;;;;;;;12.57;8.63;;;11.30;57.40;;;;;;6297107;22;20419;-94
2021/03/01 11:12:05;;;;;;;12.53;8.90;;;11.90;54.70;;;;;;6292272;22;20376;-96
2021/03/01 11:14:32;;;;;;;13.48;8.35;;;12.20;52.50;;;;;;6284015;22;20380;-96
2021/03/01 11:16:59;;;;;;;10.60;7.47;;;11.80;52.90;;;;;;6277880;22;20776;-96
2021/03/01 11:19:26;;;;;;;13.63;8.63;;;11.30;54.60;;;;;;6277729;22;20434;-96
2021/03/01 11:21:52;;;;;;;13.23;8.70;;;11.00;55.00;;;;;;6278400;22;20463;-96
2021/03/01 11:24:21;;;;;;;12.45;8.00;;;11.20;55.90;;;;;;6278068;22;20418;-95
2021/03/01 11:26:50;;;;;;;13.40;8.07;;;11.50;55.20;;;;;;6277443;22;20763;-96
2021/03/01 11:29:17;;;;;;;15.00;7.72;;;11.40;53.00;;;;;;6282071;22;20452;-96
2021/03/01 11:31:44;;;;;;;14.30;8.02;;;10.80;55.20;;;;;;6291235;22;20467;-96
2021/03/01 11:34:11;;;;;;;14.10;9.20;;;10.70;57.30;;;;;;6281910;22;20446;-95
2021/03/01 11:36:38;;;;;;;14.32;8.85;;;11.50;56.50;;;;;;6278037;22;20371;-96
2021/03/01 11:39:07;;;;;;;11.25;7.32;;;12.00;54.50;;;;;;6279247;22;20897;-96
2021/03/01 11:44:47;;;;;;;8.93;5.80;;;11.50;56.90;;;;;;6279260;22;20398;-94
2021/03/01 11:54:34;;;;;;;9.50;5.60;;;13.60;46.60;;;;;;6262993;22;20422;-96
2021/03/01 11:57:29;;;;;;;9.63;6.25;;;13.70;46.80;;;;;;6322864;22;20402;-96
2021/03/01 17:17:46;;;;;;;20.10;11.00;;;4.50;83.40;;;;;;6222623;22;20434;31
2021/03/01 17:23:44;;;;;;;19.65;11.05;;;4.30;85.00;;;;;;6296275;22;20358;-96
